createdAt,value
2022-11-02T00:01:57.920Z,12.87
2022-11-02T00:04:25.307Z,12.80
2022-11-02T00:06:52.653Z,12.97
2022-11-02T00:09:20.015Z,12.77
2022-11-02T00:11:47.392Z,12.87
2022-11-02T00:14:16.131Z,12.37
2022-11-02T00:16:43.590Z,12.73
2022-11-02T00:19:11.419Z,12.80
2022-11-02T00:21:38.878Z,12.33
2022-11-02T00:24:07.072Z,12.23
2022-11-02T00:26:36.298Z,12.27
2022-11-02T00:29:03.988Z,13.07
2022-11-02T00:31:32.748Z,12.30
2022-11-02T00:34:00.100Z,12.93
2022-11-02T00:36:27.997Z,12.60
2022-11-02T00:38:55.367Z,12.20
2022-11-02T00:41:22.942Z,12.53
2022-11-02T00:43:50.281Z,12.03
2022-11-02T00:46:17.868Z,12.70
2022-11-02T00:48:46.601Z,12.80
2022-11-02T00:51:14.108Z,13.10
2022-11-02T00:53:43.186Z,12.73
2022-11-02T00:56:10.803Z,13.27
2022-11-02T00:58:38.204Z,12.60
2022-11-02T01:01:06.994Z,12.53
2022-11-02T01:03:34.648Z,12.10
2022-11-02T01:06:10.264Z,12.50
2022-11-02T01:08:38.165Z,12.63
2022-11-02T01:11:12.920Z,12.40
2022-11-02T01:13:40.311Z,12.47
2022-11-02T01:16:08.828Z,12.70
2022-11-02T01:18:36.247Z,12.57
2022-11-02T01:21:04.249Z,17.23
2022-11-02T01:23:34.132Z,18.00
2022-11-02T01:26:03.737Z,19.20
2022-11-02T01:28:31.285Z,18.80
2022-11-02T01:31:00.819Z,18.83
2022-11-02T01:33:29.453Z,17.23
2022-11-02T01:35:56.967Z,14.83
2022-11-02T01:38:24.491Z,15.00
2022-11-02T01:40:53.163Z,15.20
2022-11-02T01:43:22.519Z,15.27
2022-11-02T01:45:52.452Z,15.97
2022-11-02T01:48:21.939Z,19.83
2022-11-02T01:50:50.003Z,23.63
2022-11-02T01:53:17.459Z,24.43
2022-11-02T01:55:46.249Z,24.50
2022-11-02T01:58:15.610Z,24.03
2022-11-02T02:00:43.119Z,24.23
2022-11-02T02:03:12.392Z,22.87
2022-11-02T02:05:41.691Z,22.33
2022-11-02T02:08:10.216Z,21.80
2022-11-02T02:10:37.569Z,21.83
2022-11-02T02:13:07.309Z,21.60
2022-11-02T02:15:48.576Z,20.63
2022-11-02T02:18:21.820Z,19.73
2022-11-02T02:21:10.072Z,19.80
2022-11-02T02:23:54.777Z,18.87
2022-11-02T02:26:39.075Z,18.00
2022-11-02T02:29:10.838Z,18.10
2022-11-02T02:31:41.723Z,17.17
2022-11-02T02:34:14.993Z,16.77
2022-11-02T02:39:22.656Z,17.10
2022-11-02T02:41:55.824Z,16.57
2022-11-02T02:44:28.848Z,16.60
2022-11-02T02:46:59.615Z,16.47
2022-11-02T02:49:29.964Z,17.00
2022-11-02T02:51:57.619Z,16.80
2022-11-02T02:54:29.608Z,16.10
2022-11-02T02:56:58.980Z,16.17
2022-11-02T02:59:30.692Z,16.67
2022-11-02T03:02:00.013Z,17.30
2022-11-02T03:04:27.446Z,17.00
2022-11-02T03:06:57.031Z,16.87
2022-11-02T03:09:30.451Z,16.60
2022-11-02T03:12:13.135Z,16.90
2022-11-02T03:14:45.412Z,16.60
2022-11-02T03:17:19.180Z,16.90
2022-11-02T03:19:52.295Z,17.10
2022-11-02T03:22:27.003Z,16.80
2022-11-02T03:25:00.182Z,16.33
2022-11-02T03:27:36.591Z,16.77
2022-11-02T03:30:09.418Z,16.73
2022-11-02T03:32:40.151Z,17.23
2022-11-02T03:35:12.128Z,17.40
2022-11-02T03:37:41.882Z,16.90
2022-11-02T03:40:12.791Z,16.63
2022-11-02T03:42:43.146Z,16.90
2022-11-02T03:45:15.873Z,16.70
2022-11-02T03:47:45.983Z,16.63
2022-11-02T03:50:16.119Z,16.93
2022-11-02T03:52:45.586Z,17.00
2022-11-02T03:55:16.263Z,17.10
2022-11-02T03:57:46.560Z,16.97
2022-11-02T04:00:19.606Z,17.30
2022-11-02T04:02:57.231Z,18.27
2022-11-02T04:05:29.487Z,16.97
2022-11-02T04:08:15.487Z,17.10
2022-11-02T04:10:57.788Z,17.00
2022-11-02T04:13:42.831Z,17.20
2022-11-02T04:16:11.648Z,17.20
2022-11-02T04:18:57.428Z,17.47
2022-11-02T04:21:25.617Z,17.30
2022-11-02T04:24:10.740Z,17.27
2022-11-02T04:26:38.227Z,17.43
2022-11-02T04:29:05.919Z,17.23
2022-11-02T04:31:34.794Z,17.17
2022-11-02T04:34:01.355Z,17.10
2022-11-02T04:36:30.684Z,17.50
2022-11-02T04:38:57.969Z,16.07
2022-11-02T04:41:43.747Z,16.40
2022-11-02T04:44:29.026Z,15.53
2022-11-02T04:47:03.226Z,16.27
2022-11-02T04:49:33.800Z,16.13
2022-11-02T04:52:01.251Z,15.53
2022-11-02T04:54:30.571Z,15.37
2022-11-02T04:57:01.691Z,15.00
2022-11-02T04:59:30.580Z,15.23
2022-11-02T05:01:58.909Z,15.03
2022-11-02T05:04:28.220Z,14.67
2022-11-02T05:07:01.058Z,14.90
2022-11-02T05:09:29.117Z,15.03
2022-11-02T05:11:56.514Z,14.60
2022-11-02T05:14:24.119Z,15.80
2022-11-02T05:16:52.102Z,15.03
2022-11-02T05:19:19.498Z,14.60
2022-11-02T05:21:48.217Z,14.83
2022-11-02T05:24:15.604Z,15.10
2022-11-02T05:26:43.143Z,15.57
2022-11-02T05:29:10.695Z,15.30
2022-11-02T05:31:38.206Z,15.87
2022-11-02T05:34:05.567Z,16.43
2022-11-02T05:36:33.288Z,17.07
2022-11-02T05:39:02.197Z,16.33
2022-11-02T05:41:29.607Z,16.10
2022-11-02T05:43:59.499Z,15.80
2022-11-02T05:46:28.945Z,16.20
2022-11-02T05:48:56.286Z,15.77
2022-11-02T05:51:23.792Z,16.23
2022-11-02T05:53:51.471Z,16.10
2022-11-02T05:56:24.807Z,16.10
2022-11-02T06:01:24.781Z,16.77
2022-11-02T06:03:53.709Z,15.90
2022-11-02T06:06:21.681Z,16.07
2022-11-02T06:08:49.078Z,16.50
2022-11-02T06:11:17.381Z,17.47
2022-11-02T06:13:46.119Z,17.03
2022-11-02T06:16:19.955Z,16.27
2022-11-02T06:18:49.985Z,16.53
2022-11-02T06:21:17.443Z,16.10
2022-11-02T06:23:47.731Z,16.20
2022-11-02T06:26:15.674Z,16.27
2022-11-02T06:28:43.243Z,15.93
2022-11-02T06:31:12.659Z,15.53
2022-11-02T06:33:40.026Z,16.47
2022-11-02T06:36:08.404Z,16.27
2022-11-02T06:38:35.881Z,16.20
2022-11-02T06:41:06.460Z,16.40
2022-11-02T06:43:37.954Z,15.70
2022-11-02T06:46:05.602Z,15.83
2022-11-02T06:48:35.742Z,15.50
2022-11-02T06:51:03.490Z,15.50
2022-11-02T06:53:30.951Z,15.50
2022-11-02T06:55:59.386Z,15.87
2022-11-02T06:58:27.401Z,15.20
2022-11-02T07:00:58.692Z,15.73
2022-11-02T07:03:26.108Z,15.80
2022-11-02T07:05:55.182Z,16.10
2022-11-02T07:08:23.084Z,16.50
2022-11-02T07:10:50.779Z,16.77
2022-11-02T07:13:18.384Z,16.60
2022-11-02T07:15:45.797Z,16.80
2022-11-02T07:18:13.654Z,16.77
2022-11-02T07:20:40.975Z,16.67
2022-11-02T07:23:10.761Z,17.40
2022-11-02T07:25:39.328Z,16.73
2022-11-02T07:28:06.693Z,16.90
2022-11-02T07:30:37.995Z,16.80
2022-11-02T07:33:05.762Z,17.43
2022-11-02T07:35:34.109Z,17.07
2022-11-02T07:38:02.652Z,17.03
2022-11-02T07:40:32.665Z,17.00
2022-11-02T07:43:00.431Z,17.13
2022-11-02T07:45:35.560Z,17.20
2022-11-02T07:48:02.933Z,17.00
2022-11-02T07:50:30.291Z,17.97
2022-11-02T07:52:58.742Z,17.73
2022-11-02T07:55:27.466Z,17.73
2022-11-02T07:57:56.900Z,17.80
2022-11-02T08:00:24.616Z,17.53
2022-11-02T08:02:55.585Z,17.53
2022-11-02T08:05:23.241Z,17.70
2022-11-02T08:07:57.585Z,17.53
2022-11-02T08:10:25.466Z,17.83
2022-11-02T08:12:53.018Z,17.47
2022-11-02T08:15:21.709Z,18.00
2022-11-02T08:17:49.098Z,17.13
2022-11-02T08:20:16.720Z,16.30
2022-11-02T08:22:44.079Z,16.43
2022-11-02T08:25:12.022Z,15.43
2022-11-02T08:27:39.504Z,15.07
2022-11-02T08:30:07.962Z,14.97
2022-11-02T08:32:36.816Z,15.40
2022-11-02T08:35:04.905Z,15.37
2022-11-02T08:37:32.268Z,15.30
2022-11-02T08:39:59.646Z,15.70
2022-11-02T08:42:27.070Z,15.73
2022-11-02T08:44:54.431Z,15.87
2022-11-02T08:47:21.808Z,16.00
2022-11-02T08:49:51.702Z,15.53
2022-11-02T08:52:19.347Z,15.43
2022-11-02T08:54:46.770Z,15.77
2022-11-02T08:57:14.237Z,15.43
2022-11-02T08:59:44.323Z,15.63
2022-11-02T09:02:12.006Z,15.10
2022-11-02T09:04:39.547Z,15.57
2022-11-02T09:07:08.248Z,15.30
2022-11-02T09:09:35.604Z,15.70
2022-11-02T09:12:02.976Z,15.93
2022-11-02T09:14:30.374Z,15.60
2022-11-02T09:16:57.797Z,15.70
2022-11-02T09:19:25.201Z,15.70
2022-11-02T09:21:52.559Z,15.73
2022-11-02T09:24:21.223Z,15.43
2022-11-02T09:26:49.399Z,15.60
2022-11-02T09:29:16.800Z,15.90
2022-11-02T09:31:44.232Z,15.70
2022-11-02T09:34:11.720Z,15.70
2022-11-02T09:39:06.522Z,17.07
2022-11-02T09:42:05.379Z,16.23
2022-11-02T09:44:41.621Z,16.03
2022-11-02T09:47:55.784Z,15.53
2022-11-02T09:50:00.053Z,15.83
2022-11-02T09:52:32.555Z,15.83
2022-11-02T09:55:00.747Z,16.00
2022-11-02T09:57:32.386Z,15.97
2022-11-02T10:00:00.182Z,16.27
2022-11-02T10:02:32.320Z,16.10
2022-11-02T10:05:10.912Z,15.77
2022-11-02T10:07:54.589Z,16.00
2022-11-02T10:10:27.918Z,15.57
2022-11-02T10:13:03.786Z,15.90
2022-11-02T10:15:37.404Z,15.40
2022-11-02T10:18:19.856Z,15.70
2022-11-02T10:20:48.811Z,15.57
2022-11-02T10:23:19.322Z,15.43
2022-11-02T10:25:48.622Z,15.97
2022-11-02T10:28:20.307Z,15.77
2022-11-02T10:30:47.839Z,15.70
2022-11-02T10:33:17.485Z,15.90
2022-11-02T10:36:16.379Z,15.87
2022-11-02T10:38:43.707Z,15.93
2022-11-02T10:41:39.799Z,16.37
2022-11-02T10:44:18.165Z,15.63
2022-11-02T10:46:58.844Z,15.70
2022-11-02T10:49:41.583Z,15.57
2022-11-02T10:52:12.429Z,16.00
2022-11-02T10:54:39.789Z,15.67
2022-11-02T10:57:11.270Z,15.70
2022-11-02T10:59:40.266Z,15.50
2022-11-02T11:02:13.296Z,15.80
2022-11-02T11:04:41.683Z,15.97
2022-11-02T11:07:14.989Z,16.37
2022-11-02T11:09:49.911Z,15.80
2022-11-02T11:12:20.833Z,16.10
2022-11-02T11:34:57.705Z,16.23
2022-11-02T11:37:25.902Z,16.40
2022-11-02T11:39:56.979Z,16.27
2022-11-02T11:42:26.363Z,16.53
2022-11-02T11:44:58.222Z,15.77
2022-11-02T11:47:30.359Z,15.93
2022-11-02T11:50:08.625Z,16.90
2022-11-02T11:52:38.471Z,16.00
2022-11-02T11:55:21.715Z,16.30
2022-11-02T11:58:05.981Z,16.30
2022-11-02T12:00:34.444Z,16.20
2022-11-02T12:03:07.694Z,17.20
2022-11-02T12:05:43.349Z,16.20
2022-11-02T12:08:20.634Z,16.67
2022-11-02T12:11:02.571Z,16.73
2022-11-02T12:15:37.210Z,16.47
2022-11-02T12:18:18.461Z,16.30
2022-11-02T12:20:54.324Z,16.30
2022-11-02T12:23:40.347Z,26.23
2022-11-02T12:26:15.739Z,22.53
2022-11-02T12:28:47.990Z,16.77
2022-11-02T12:31:26.579Z,17.07
2022-11-02T12:34:06.567Z,16.73
2022-11-02T12:37:09.808Z,17.33
2022-11-02T12:39:50.129Z,16.40
2022-11-02T12:42:26.903Z,16.13
2022-11-02T12:45:11.697Z,15.90
2022-11-02T12:47:50.952Z,16.23
2022-11-02T12:50:22.586Z,16.33
2022-11-02T12:53:04.624Z,16.73
2022-11-02T12:55:38.355Z,16.90
2022-11-02T12:58:08.922Z,16.50
2022-11-02T13:00:38.471Z,17.13
2022-11-02T13:03:16.895Z,16.70
2022-11-02T13:05:50.339Z,17.00
2022-11-02T13:08:19.335Z,16.00
2022-11-02T13:10:53.298Z,17.50
2022-11-02T13:13:29.012Z,17.03
2022-11-02T13:15:57.017Z,17.73
2022-11-02T13:18:29.893Z,16.53
2022-11-02T13:20:59.208Z,16.30
2022-11-02T13:26:01.079Z,16.77
2022-11-02T13:28:34.912Z,16.70
2022-11-02T13:31:07.627Z,16.70
2022-11-02T13:33:44.689Z,16.53
2022-11-02T13:36:12.942Z,16.23
2022-11-02T13:38:42.140Z,16.63
2022-11-02T13:41:20.933Z,16.50
2022-11-02T13:44:06.864Z,17.03
2022-11-02T13:46:47.960Z,16.90
2022-11-02T13:49:19.120Z,17.47
2022-11-02T13:51:47.896Z,16.80
2022-11-02T13:54:18.949Z,16.47
2022-11-02T13:56:46.973Z,16.80
2022-11-02T13:59:22.064Z,16.87
2022-11-02T14:01:49.868Z,16.80
2022-11-02T14:04:19.928Z,16.73
2022-11-02T14:06:52.131Z,16.23
2022-11-02T14:09:31.411Z,17.20
2022-11-02T14:12:27.277Z,16.37
2022-11-02T14:15:48.527Z,16.33
2022-11-02T14:18:30.631Z,16.40
2022-11-02T14:20:59.872Z,16.57
2022-11-02T14:23:39.176Z,16.97
2022-11-02T14:26:32.040Z,16.43
2022-11-02T14:28:59.607Z,16.70
2022-11-02T14:31:40.451Z,17.00
2022-11-02T14:34:19.244Z,17.00
2022-11-02T14:36:57.288Z,16.80
2022-11-02T14:39:28.757Z,16.50
2022-11-02T14:42:12.326Z,16.43
2022-11-02T14:44:52.872Z,16.07
2022-11-02T14:47:20.720Z,16.57
2022-11-02T14:49:50.632Z,16.00
2022-11-02T14:52:25.481Z,15.73
2022-11-02T14:54:54.967Z,16.40
2022-11-02T14:57:25.420Z,16.43
2022-11-02T14:59:55.252Z,16.60
2022-11-02T15:02:25.280Z,16.73
2022-11-02T15:04:54.150Z,16.60
2022-11-02T15:07:26.730Z,16.50
2022-11-02T15:09:57.067Z,16.30
2022-11-02T15:12:30.932Z,16.43
2022-11-02T15:15:35.062Z,17.10
2022-11-02T15:18:23.029Z,16.53
2022-11-02T15:21:22.328Z,16.63
2022-11-02T15:23:55.026Z,17.20
2022-11-02T15:26:26.801Z,17.07
2022-11-02T15:28:57.601Z,16.67
2022-11-02T15:31:26.510Z,15.93
2022-11-02T15:33:56.143Z,16.60
2022-11-02T15:36:27.837Z,17.10
2022-11-02T15:38:56.765Z,17.17
2022-11-02T15:41:29.315Z,17.43
2022-11-02T15:44:07.491Z,16.80
2022-11-02T15:46:46.450Z,17.13
2022-11-02T15:49:24.345Z,17.43
2022-11-02T15:51:57.708Z,16.67
2022-11-02T15:54:45.864Z,16.90
2022-11-02T15:57:17.932Z,16.43
2022-11-02T16:00:02.061Z,16.70
2022-11-02T16:02:37.963Z,16.50
2022-11-02T16:05:06.983Z,16.50
2022-11-02T16:07:50.242Z,16.93
2022-11-02T16:10:27.903Z,16.07
2022-11-02T16:13:02.558Z,16.90
2022-11-02T16:15:30.211Z,16.93
2022-11-02T16:17:58.318Z,17.60
2022-11-02T16:20:28.012Z,17.80
2022-11-02T16:22:56.696Z,17.57
2022-11-02T16:25:36.803Z,17.60
2022-11-02T16:28:18.677Z,16.83
2022-11-02T16:30:59.081Z,17.93
2022-11-02T16:33:26.984Z,17.73
2022-11-02T16:35:54.493Z,16.50
2022-11-02T16:38:23.192Z,16.30
2022-11-02T16:40:52.162Z,16.23
2022-11-02T16:43:20.303Z,16.57
2022-11-02T16:45:50.625Z,16.83
2022-11-02T16:48:21.321Z,17.17
2022-11-02T16:51:02.950Z,16.80
2022-11-02T16:53:31.771Z,16.50
2022-11-02T16:56:15.375Z,16.50
2022-11-02T16:58:46.513Z,16.60
2022-11-02T17:01:20.996Z,16.60
2022-11-02T17:03:48.763Z,16.90
2022-11-02T17:06:17.060Z,16.33
2022-11-02T17:08:45.474Z,16.00
2022-11-02T17:11:16.526Z,16.93
2022-11-02T17:13:47.335Z,17.53
2022-11-02T17:16:14.719Z,17.00
2022-11-02T17:18:42.121Z,16.10
2022-11-02T17:21:25.328Z,16.27
2022-11-02T17:23:53.224Z,16.67
2022-11-02T17:26:28.653Z,16.30
2022-11-02T17:28:57.095Z,16.47
2022-11-02T17:31:26.723Z,16.17
2022-11-02T17:33:54.482Z,16.37
2022-11-02T17:36:21.999Z,16.27
2022-11-02T17:38:49.357Z,15.43
2022-11-02T17:41:35.705Z,15.70
2022-11-02T17:44:04.819Z,16.20
2022-11-02T17:46:32.364Z,16.37
2022-11-02T17:48:59.772Z,16.20
2022-11-02T17:51:27.217Z,15.90
2022-11-02T17:53:54.576Z,16.07
2022-11-02T17:56:21.972Z,15.93
2022-11-02T17:58:49.309Z,16.23
2022-11-02T18:01:19.541Z,15.70
2022-11-02T18:03:46.962Z,16.70
2022-11-02T18:06:14.327Z,16.97
2022-11-02T18:08:59.484Z,17.50
2022-11-02T18:11:26.893Z,16.90
2022-11-02T18:13:54.354Z,16.90
2022-11-02T18:16:23.066Z,17.77
2022-11-02T18:18:50.527Z,16.50
2022-11-02T18:21:17.880Z,17.27
2022-11-02T18:26:46.715Z,16.67
2022-11-02T18:29:14.535Z,17.83
2022-11-02T18:31:43.388Z,17.60
2022-11-02T18:34:11.163Z,16.93
2022-11-02T18:36:38.952Z,16.83
2022-11-02T18:39:06.512Z,16.50
2022-11-02T18:41:36.812Z,16.97
2022-11-02T18:44:13.560Z,16.40
2022-11-02T18:46:44.113Z,16.67
2022-11-02T18:49:11.507Z,16.47
2022-11-02T18:51:42.716Z,16.70
2022-11-02T18:54:10.180Z,16.60
2022-11-02T18:56:37.532Z,16.90
2022-11-02T18:59:05.211Z,16.70
2022-11-02T19:01:32.871Z,16.27
2022-11-02T19:04:02.150Z,16.70
2022-11-02T19:06:48.458Z,17.13
2022-11-02T19:09:19.764Z,16.47
2022-11-02T19:11:48.616Z,16.27
2022-11-02T19:14:16.340Z,15.93
2022-11-02T19:16:43.780Z,16.23
2022-11-02T19:19:12.585Z,16.40
2022-11-02T19:21:40.203Z,16.70
2022-11-02T19:24:08.621Z,16.90
2022-11-02T19:26:36.768Z,16.60
2022-11-02T19:29:06.510Z,16.57
2022-11-02T19:31:35.086Z,16.47
2022-11-02T19:34:02.999Z,16.60
2022-11-02T19:36:31.997Z,16.13
2022-11-02T19:39:03.021Z,17.27
2022-11-02T19:41:31.021Z,16.20
2022-11-02T19:43:58.613Z,15.60
2022-11-02T19:46:27.312Z,16.40
2022-11-02T19:48:56.666Z,16.57
2022-11-02T19:51:25.587Z,16.13
2022-11-02T19:53:56.071Z,16.77
2022-11-02T19:56:23.964Z,15.87
2022-11-02T19:58:52.607Z,16.43
2022-11-02T20:01:21.399Z,16.13
2022-11-02T20:03:49.817Z,15.67
2022-11-02T20:06:20.036Z,16.47
2022-11-02T20:08:50.212Z,15.73
2022-11-02T20:11:19.637Z,16.93
2022-11-02T20:13:48.104Z,16.00
2022-11-02T20:16:17.119Z,15.70
2022-11-02T20:18:45.992Z,15.87
2022-11-02T20:21:14.912Z,15.83
2022-11-02T20:23:43.304Z,16.50
2022-11-02T20:26:12.340Z,16.03
2022-11-02T20:28:44.093Z,15.27
2022-11-02T20:31:14.145Z,15.83
2022-11-02T20:33:41.844Z,15.70
2022-11-02T20:36:10.572Z,15.93
2022-11-02T20:38:38.094Z,16.33
2022-11-02T20:41:07.811Z,16.07
2022-11-02T20:43:35.871Z,16.10
2022-11-02T20:46:35.399Z,16.63
2022-11-02T20:48:54.243Z,16.23
2022-11-02T20:51:22.459Z,16.10
2022-11-02T20:53:50.052Z,15.07
2022-11-02T20:56:17.838Z,15.60
2022-11-02T20:58:49.944Z,15.53
2022-11-02T21:01:22.217Z,16.17
2022-11-02T21:03:49.646Z,15.70
2022-11-02T21:06:17.038Z,15.20
2022-11-02T21:08:44.426Z,15.23
2022-11-02T21:11:25.919Z,15.60
2022-11-02T21:13:53.344Z,15.23
2022-11-02T21:16:22.224Z,14.90
2022-11-02T21:18:49.763Z,15.90
2022-11-02T21:21:18.288Z,15.30
2022-11-02T21:23:46.319Z,15.20
2022-11-02T21:26:15.283Z,15.57
2022-11-02T21:28:44.678Z,15.73
2022-11-02T21:31:15.058Z,15.13
2022-11-02T21:33:44.329Z,15.50
2022-11-02T21:36:11.763Z,15.57
2022-11-02T21:38:39.643Z,16.10
2022-11-02T21:41:08.575Z,15.17
2022-11-02T21:43:37.028Z,15.40
2022-11-02T21:46:06.095Z,16.00
2022-11-02T21:48:35.104Z,15.70
2022-11-02T21:51:05.987Z,15.47
2022-11-02T21:53:33.819Z,15.40
2022-11-02T21:56:02.515Z,15.40
2022-11-02T21:58:30.180Z,15.50
2022-11-02T22:01:17.355Z,15.33
2022-11-02T22:03:44.837Z,15.13
2022-11-02T22:06:13.603Z,15.70
2022-11-02T22:08:41.519Z,15.17
2022-11-02T22:11:10.863Z,15.13
2022-11-02T22:13:39.679Z,15.30
2022-11-02T22:16:08.717Z,15.90
2022-11-02T22:18:36.117Z,15.80
2022-11-02T22:21:03.623Z,16.00
2022-11-02T22:23:32.351Z,15.40
2022-11-02T22:26:00.319Z,15.53
2022-11-02T22:28:31.078Z,15.70
2022-11-02T22:30:58.629Z,15.13
2022-11-02T22:33:26.007Z,15.17
2022-11-02T22:35:53.447Z,15.30
2022-11-02T22:38:38.239Z,15.40
2022-11-02T22:41:07.553Z,15.47
2022-11-02T22:43:35.663Z,15.33
2022-11-02T22:46:03.443Z,15.20
2022-11-02T22:48:31.004Z,15.17
2022-11-02T22:50:58.448Z,15.60
2022-11-02T22:53:27.584Z,15.33
2022-11-02T22:56:02.265Z,15.67
2022-11-02T22:58:32.921Z,15.10
2022-11-02T23:01:00.904Z,15.90
2022-11-02T23:03:31.235Z,15.17
2022-11-02T23:05:58.668Z,15.30
2022-11-02T23:11:13.303Z,16.10
2022-11-02T23:13:46.152Z,15.60
2022-11-02T23:16:23.758Z,15.83
2022-11-02T23:19:10.499Z,15.50
2022-11-02T23:21:38.535Z,15.57
2022-11-02T23:24:24.344Z,16.10
2022-11-02T23:26:51.699Z,15.60
2022-11-02T23:29:38.259Z,15.63
2022-11-02T23:32:23.684Z,15.53
2022-11-02T23:35:08.706Z,15.63
2022-11-02T23:37:36.163Z,15.53
2022-11-02T23:40:03.681Z,15.23
2022-11-02T23:42:31.136Z,15.63
2022-11-02T23:45:00.540Z,15.70
2022-11-02T23:47:43.427Z,15.47
2022-11-02T23:50:11.172Z,15.73
2022-11-02T23:52:56.499Z,15.40
2022-11-02T23:55:43.815Z,15.60
2022-11-02T23:58:11.265Z,15.53
